sensor_id;sensor_type;location;lat;lon;timestamp;temperature;humidity
12470;DHT22;36499;46.484;13.832;2022-10-29T00:00:50;9.60;99.90
12470;DHT22;36499;46.484;13.832;2022-10-29T00:03:18;9.60;99.90
12470;DHT22;36499;46.484;13.832;2022-10-29T00:05:56;9.60;99.90
12470;DHT22;36499;46.484;13.832;2022-10-29T00:08:25;9.60;99.90
12470;DHT22;36499;46.484;13.832;2022-10-29T00:10:52;9.60;99.90
12470;DHT22;36499;46.484;13.832;2022-10-29T00:13:20;9.60;99.90
12470;DHT22;36499;46.484;13.832;2022-10-29T00:15:47;9.60;99.90
12470;DHT22;36499;46.484;13.832;2022-10-29T00:18:14;9.70;99.90
12470;DHT22;36499;46.484;13.832;2022-10-29T00:20:41;9.60;99.90
12470;DHT22;36499;46.484;13.832;2022-10-29T00:23:09;9.60;99.90
12470;DHT22;36499;46.484;13.832;2022-10-29T00:25:36;9.60;99.90
12470;DHT22;36499;46.484;13.832;2022-10-29T00:28:03;9.60;99.90
12470;DHT22;36499;46.484;13.832;2022-10-29T00:30:30;9.60;99.90
12470;DHT22;36499;46.484;13.832;2022-10-29T00:32:57;9.60;99.90
12470;DHT22;36499;46.484;13.832;2022-10-29T00:35:25;9.60;99.90
12470;DHT22;36499;46.484;13.832;2022-10-29T00:37:52;9.50;99.90
12470;DHT22;36499;46.484;13.832;2022-10-29T00:40:20;9.50;99.90
12470;DHT22;36499;46.484;13.832;2022-10-29T00:42:47;9.50;99.90
12470;DHT22;36499;46.484;13.832;2022-10-29T00:45:19;9.40;99.90
12470;DHT22;36499;46.484;13.832;2022-10-29T00:47:50;9.40;99.90
12470;DHT22;36499;46.484;13.832;2022-10-29T00:50:20;9.30;99.90
12470;DHT22;36499;46.484;13.832;2022-10-29T00:52:50;9.40;99.90
12470;DHT22;36499;46.484;13.832;2022-10-29T00:55:20;9.40;99.90
12470;DHT22;36499;46.484;13.832;2022-10-29T00:57:50;9.30;99.90
12470;DHT22;36499;46.484;13.832;2022-10-29T01:00:20;9.30;99.90
12470;DHT22;36499;46.484;13.832;2022-10-29T01:02:48;9.30;99.90
12470;DHT22;36499;46.484;13.832;2022-10-29T01:05:17;9.40;99.90
12470;DHT22;36499;46.484;13.832;2022-10-29T01:07:47;9.40;99.90
12470;DHT22;36499;46.484;13.832;2022-10-29T01:10:15;9.40;99.90
12470;DHT22;36499;46.484;13.832;2022-10-29T01:15:57;9.40;99.90
12470;DHT22;36499;46.484;13.832;2022-10-29T01:18:37;9.40;99.90
12470;DHT22;36499;46.484;13.832;2022-10-29T01:21:38;9.40;99.90
12470;DHT22;36499;46.484;13.832;2022-10-29T01:24:35;9.40;99.90
12470;DHT22;36499;46.484;13.832;2022-10-29T01:27:48;9.50;99.90
12470;DHT22;36499;46.484;13.832;2022-10-29T01:33:36;9.60;99.90
12470;DHT22;36499;46.484;13.832;2022-10-29T01:36:14;9.60;99.90
12470;DHT22;36499;46.484;13.832;2022-10-29T01:38:55;9.60;99.90
12470;DHT22;36499;46.484;13.832;2022-10-29T01:41:35;9.60;99.90
12470;DHT22;36499;46.484;13.832;2022-10-29T01:44:14;9.50;99.90
12470;DHT22;36499;46.484;13.832;2022-10-29T01:46:51;9.50;99.90
12470;DHT22;36499;46.484;13.832;2022-10-29T01:49:25;9.50;99.90
12470;DHT22;36499;46.484;13.832;2022-10-29T01:51:56;9.40;99.90
12470;DHT22;36499;46.484;13.832;2022-10-29T01:54:26;9.40;99.90
12470;DHT22;36499;46.484;13.832;2022-10-29T01:56:54;9.40;99.90
12470;DHT22;36499;46.484;13.832;2022-10-29T01:59:23;9.40;99.90
12470;DHT22;36499;46.484;13.832;2022-10-29T02:02:05;9.30;99.90
12470;DHT22;36499;46.484;13.832;2022-10-29T02:04:52;9.40;99.90
12470;DHT22;36499;46.484;13.832;2022-10-29T02:07:37;9.40;99.90
12470;DHT22;36499;46.484;13.832;2022-10-29T02:10:17;9.30;99.90
12470;DHT22;36499;46.484;13.832;2022-10-29T02:12:52;9.30;99.90
12470;DHT22;36499;46.484;13.832;2022-10-29T02:15:25;9.30;99.90
12470;DHT22;36499;46.484;13.832;2022-10-29T02:17:59;9.40;99.90
12470;DHT22;36499;46.484;13.832;2022-10-29T02:20:28;9.30;99.90
12470;DHT22;36499;46.484;13.832;2022-10-29T02:22:56;9.30;99.90
12470;DHT22;36499;46.484;13.832;2022-10-29T02:25:23;9.30;99.90
12470;DHT22;36499;46.484;13.832;2022-10-29T02:27:51;9.20;99.90
12470;DHT22;36499;46.484;13.832;2022-10-29T02:30:18;9.20;99.90
12470;DHT22;36499;46.484;13.832;2022-10-29T02:32:45;9.20;99.90
12470;DHT22;36499;46.484;13.832;2022-10-29T02:35:13;9.30;99.90
12470;DHT22;36499;46.484;13.832;2022-10-29T02:37:41;9.30;99.90
12470;DHT22;36499;46.484;13.832;2022-10-29T02:40:08;9.40;99.90
12470;DHT22;36499;46.484;13.832;2022-10-29T02:42:36;9.40;99.90
12470;DHT22;36499;46.484;13.832;2022-10-29T02:45:04;9.50;99.90
12470;DHT22;36499;46.484;13.832;2022-10-29T02:47:32;9.60;99.90
12470;DHT22;36499;46.484;13.832;2022-10-29T02:49:59;9.60;99.90
12470;DHT22;36499;46.484;13.832;2022-10-29T02:52:27;9.70;99.90
12470;DHT22;36499;46.484;13.832;2022-10-29T02:54:54;9.70;99.90
12470;DHT22;36499;46.484;13.832;2022-10-29T02:57:21;9.70;99.90
12470;DHT22;36499;46.484;13.832;2022-10-29T02:59:48;9.70;99.90
12470;DHT22;36499;46.484;13.832;2022-10-29T03:02:15;9.70;99.90
12470;DHT22;36499;46.484;13.832;2022-10-29T03:04:42;9.70;99.90
12470;DHT22;36499;46.484;13.832;2022-10-29T03:07:10;9.70;99.90
12470;DHT22;36499;46.484;13.832;2022-10-29T03:09:38;9.70;99.90
12470;DHT22;36499;46.484;13.832;2022-10-29T03:12:06;9.70;99.90
12470;DHT22;36499;46.484;13.832;2022-10-29T03:14:33;9.70;99.90
12470;DHT22;36499;46.484;13.832;2022-10-29T03:17:00;9.70;99.90
12470;DHT22;36499;46.484;13.832;2022-10-29T03:19:27;9.70;99.90
12470;DHT22;36499;46.484;13.832;2022-10-29T03:21:54;9.70;99.90
12470;DHT22;36499;46.484;13.832;2022-10-29T03:24:21;9.60;99.90
12470;DHT22;36499;46.484;13.832;2022-10-29T03:26:50;9.60;99.90
12470;DHT22;36499;46.484;13.832;2022-10-29T03:29:17;9.50;99.90
12470;DHT22;36499;46.484;13.832;2022-10-29T03:31:44;9.40;99.90
12470;DHT22;36499;46.484;13.832;2022-10-29T03:34:11;9.30;99.90
12470;DHT22;36499;46.484;13.832;2022-10-29T03:36:38;9.30;99.90
12470;DHT22;36499;46.484;13.832;2022-10-29T03:39:05;9.20;99.90
12470;DHT22;36499;46.484;13.832;2022-10-29T03:41:32;9.30;99.90
12470;DHT22;36499;46.484;13.832;2022-10-29T03:44:01;9.30;99.90
12470;DHT22;36499;46.484;13.832;2022-10-29T03:46:28;9.30;99.90
12470;DHT22;36499;46.484;13.832;2022-10-29T03:48:55;9.40;99.90
12470;DHT22;36499;46.484;13.832;2022-10-29T03:51:22;9.40;99.90
12470;DHT22;36499;46.484;13.832;2022-10-29T03:53:49;9.40;99.90
12470;DHT22;36499;46.484;13.832;2022-10-29T03:56:16;9.40;99.90
12470;DHT22;36499;46.484;13.832;2022-10-29T03:58:43;9.40;99.90
12470;DHT22;36499;46.484;13.832;2022-10-29T04:01:11;9.40;99.90
12470;DHT22;36499;46.484;13.832;2022-10-29T04:03:39;9.50;99.90
12470;DHT22;36499;46.484;13.832;2022-10-29T04:06:11;9.60;99.90
12470;DHT22;36499;46.484;13.832;2022-10-29T04:08:39;9.60;99.90
12470;DHT22;36499;46.484;13.832;2022-10-29T04:11:09;9.60;99.90
12470;DHT22;36499;46.484;13.832;2022-10-29T04:13:37;9.60;99.90
12470;DHT22;36499;46.484;13.832;2022-10-29T04:16:05;9.50;99.90
12470;DHT22;36499;46.484;13.832;2022-10-29T04:18:34;9.50;99.90
12470;DHT22;36499;46.484;13.832;2022-10-29T04:21:01;9.40;99.90
12470;DHT22;36499;46.484;13.832;2022-10-29T04:23:29;9.40;99.90
12470;DHT22;36499;46.484;13.832;2022-10-29T04:25:56;9.40;99.90
12470;DHT22;36499;46.484;13.832;2022-10-29T04:28:25;9.40;99.90
12470;DHT22;36499;46.484;13.832;2022-10-29T04:30:52;9.40;99.90
12470;DHT22;36499;46.484;13.832;2022-10-29T04:33:19;9.40;99.90
12470;DHT22;36499;46.484;13.832;2022-10-29T04:35:51;9.50;99.90
12470;DHT22;36499;46.484;13.832;2022-10-29T04:38:20;9.50;99.90
12470;DHT22;36499;46.484;13.832;2022-10-29T04:40:48;9.50;99.90
12470;DHT22;36499;46.484;13.832;2022-10-29T04:43:15;9.50;99.90
12470;DHT22;36499;46.484;13.832;2022-10-29T04:45:43;9.50;99.90
12470;DHT22;36499;46.484;13.832;2022-10-29T04:48:16;9.50;99.90
12470;DHT22;36499;46.484;13.832;2022-10-29T04:50:43;9.50;99.90
12470;DHT22;36499;46.484;13.832;2022-10-29T04:53:11;9.50;99.90
12470;DHT22;36499;46.484;13.832;2022-10-29T04:55:38;9.50;99.90
12470;DHT22;36499;46.484;13.832;2022-10-29T04:58:09;9.50;99.90
12470;DHT22;36499;46.484;13.832;2022-10-29T05:00:38;9.60;99.90
12470;DHT22;36499;46.484;13.832;2022-10-29T05:03:06;9.60;99.90
12470;DHT22;36499;46.484;13.832;2022-10-29T05:05:34;9.60;99.90
12470;DHT22;36499;46.484;13.832;2022-10-29T05:08:03;9.60;99.90
12470;DHT22;36499;46.484;13.832;2022-10-29T05:10:34;9.60;99.90
12470;DHT22;36499;46.484;13.832;2022-10-29T05:13:04;9.60;99.90
12470;DHT22;36499;46.484;13.832;2022-10-29T05:15:33;9.40;99.90
12470;DHT22;36499;46.484;13.832;2022-10-29T05:18:00;9.30;99.90
12470;DHT22;36499;46.484;13.832;2022-10-29T05:20:28;9.20;99.90
12470;DHT22;36499;46.484;13.832;2022-10-29T05:22:59;9.20;99.90
12470;DHT22;36499;46.484;13.832;2022-10-29T05:25:28;9.20;99.90
12470;DHT22;36499;46.484;13.832;2022-10-29T05:28:02;9.20;99.90
12470;DHT22;36499;46.484;13.832;2022-10-29T05:30:31;9.30;99.90
12470;DHT22;36499;46.484;13.832;2022-10-29T05:32:58;9.30;99.90
12470;DHT22;36499;46.484;13.832;2022-10-29T05:35:26;9.30;99.90
12470;DHT22;36499;46.484;13.832;2022-10-29T05:37:54;9.30;99.90
12470;DHT22;36499;46.484;13.832;2022-10-29T05:40:22;9.30;99.90
12470;DHT22;36499;46.484;13.832;2022-10-29T05:42:50;9.40;99.90
12470;DHT22;36499;46.484;13.832;2022-10-29T05:45:18;9.40;99.90
12470;DHT22;36499;46.484;13.832;2022-10-29T05:47:45;9.50;99.90
12470;DHT22;36499;46.484;13.832;2022-10-29T05:50:13;9.50;99.90
12470;DHT22;36499;46.484;13.832;2022-10-29T05:52:40;9.50;99.90
12470;DHT22;36499;46.484;13.832;2022-10-29T05:55:08;9.60;99.90
12470;DHT22;36499;46.484;13.832;2022-10-29T05:57:35;9.70;99.90
12470;DHT22;36499;46.484;13.832;2022-10-29T06:00:03;9.70;99.90
12470;DHT22;36499;46.484;13.832;2022-10-29T06:02:32;9.70;99.90
12470;DHT22;36499;46.484;13.832;2022-10-29T06:04:59;9.70;99.90
12470;DHT22;36499;46.484;13.832;2022-10-29T06:07:26;9.70;99.90
12470;DHT22;36499;46.484;13.832;2022-10-29T06:09:53;9.70;99.90
12470;DHT22;36499;46.484;13.832;2022-10-29T06:12:20;9.70;99.90
12470;DHT22;36499;46.484;13.832;2022-10-29T06:14:47;9.70;99.90
12470;DHT22;36499;46.484;13.832;2022-10-29T06:17:15;9.60;99.90
12470;DHT22;36499;46.484;13.832;2022-10-29T06:19:43;9.60;99.90
12470;DHT22;36499;46.484;13.832;2022-10-29T06:22:10;9.60;99.90
12470;DHT22;36499;46.484;13.832;2022-10-29T06:24:37;9.50;99.90
12470;DHT22;36499;46.484;13.832;2022-10-29T06:27:04;9.60;99.90
12470;DHT22;36499;46.484;13.832;2022-10-29T06:29:32;9.50;99.90
12470;DHT22;36499;46.484;13.832;2022-10-29T06:31:59;9.50;99.90
12470;DHT22;36499;46.484;13.832;2022-10-29T06:34:26;9.50;99.90
12470;DHT22;36499;46.484;13.832;2022-10-29T06:36:56;9.40;99.90
12470;DHT22;36499;46.484;13.832;2022-10-29T06:39:23;9.50;99.90
12470;DHT22;36499;46.484;13.832;2022-10-29T06:41:50;9.50;99.90
12470;DHT22;36499;46.484;13.832;2022-10-29T06:44:17;9.50;99.90
12470;DHT22;36499;46.484;13.832;2022-10-29T06:46:44;9.60;99.90
12470;DHT22;36499;46.484;13.832;2022-10-29T06:49:11;9.70;99.90
12470;DHT22;36499;46.484;13.832;2022-10-29T06:51:38;9.70;99.90
12470;DHT22;36499;46.484;13.832;2022-10-29T06:54:06;9.80;99.90
12470;DHT22;36499;46.484;13.832;2022-10-29T06:56:33;9.90;99.90
12470;DHT22;36499;46.484;13.832;2022-10-29T06:59:00;10.00;99.90
12470;DHT22;36499;46.484;13.832;2022-10-29T07:01:27;10.00;99.90
12470;DHT22;36499;46.484;13.832;2022-10-29T07:03:58;10.20;99.90
12470;DHT22;36499;46.484;13.832;2022-10-29T07:06:25;10.30;99.90
12470;DHT22;36499;46.484;13.832;2022-10-29T07:08:52;10.40;99.90
12470;DHT22;36499;46.484;13.832;2022-10-29T07:11:21;10.40;99.90
12470;DHT22;36499;46.484;13.832;2022-10-29T07:13:48;10.60;99.90
12470;DHT22;36499;46.484;13.832;2022-10-29T07:16:15;10.60;99.90
12470;DHT22;36499;46.484;13.832;2022-10-29T07:18:42;10.70;99.90
12470;DHT22;36499;46.484;13.832;2022-10-29T07:21:09;10.80;99.90
12470;DHT22;36499;46.484;13.832;2022-10-29T07:23:38;11.00;99.90
12470;DHT22;36499;46.484;13.832;2022-10-29T07:26:05;11.20;99.90
12470;DHT22;36499;46.484;13.832;2022-10-29T07:28:33;11.50;99.90
12470;DHT22;36499;46.484;13.832;2022-10-29T07:31:00;11.70;99.90
12470;DHT22;36499;46.484;13.832;2022-10-29T07:33:28;11.90;99.90
12470;DHT22;36499;46.484;13.832;2022-10-29T07:35:56;12.00;99.90
12470;DHT22;36499;46.484;13.832;2022-10-29T07:38:24;12.10;99.90
12470;DHT22;36499;46.484;13.832;2022-10-29T07:40:52;12.30;99.90
12470;DHT22;36499;46.484;13.832;2022-10-29T07:43:20;12.40;99.90
12470;DHT22;36499;46.484;13.832;2022-10-29T07:45:50;12.50;99.90
12470;DHT22;36499;46.484;13.832;2022-10-29T07:48:18;12.70;99.90
12470;DHT22;36499;46.484;13.832;2022-10-29T07:50:47;12.90;99.90
12470;DHT22;36499;46.484;13.832;2022-10-29T07:53:14;13.00;99.90
12470;DHT22;36499;46.484;13.832;2022-10-29T07:55:41;13.10;99.90
12470;DHT22;36499;46.484;13.832;2022-10-29T07:58:10;13.30;99.90
12470;DHT22;36499;46.484;13.832;2022-10-29T08:00:39;13.40;99.90
12470;DHT22;36499;46.484;13.832;2022-10-29T08:03:10;13.60;99.90
12470;DHT22;36499;46.484;13.832;2022-10-29T08:05:38;13.80;99.90
12470;DHT22;36499;46.484;13.832;2022-10-29T08:08:06;13.90;99.90
12470;DHT22;36499;46.484;13.832;2022-10-29T08:10:35;14.10;99.90
12470;DHT22;36499;46.484;13.832;2022-10-29T08:13:03;14.30;99.90
12470;DHT22;36499;46.484;13.832;2022-10-29T08:15:32;14.40;99.90
12470;DHT22;36499;46.484;13.832;2022-10-29T08:18:01;14.50;99.90
12470;DHT22;36499;46.484;13.832;2022-10-29T08:20:30;14.60;99.90
12470;DHT22;36499;46.484;13.832;2022-10-29T08:22:58;14.70;99.90
12470;DHT22;36499;46.484;13.832;2022-10-29T08:25:26;14.80;99.90
12470;DHT22;36499;46.484;13.832;2022-10-29T08:28:00;14.80;99.90
12470;DHT22;36499;46.484;13.832;2022-10-29T08:30:29;14.90;99.90
12470;DHT22;36499;46.484;13.832;2022-10-29T08:32:57;15.10;99.90
12470;DHT22;36499;46.484;13.832;2022-10-29T08:35:24;15.20;99.90
12470;DHT22;36499;46.484;13.832;2022-10-29T08:37:52;15.30;99.90
12470;DHT22;36499;46.484;13.832;2022-10-29T08:40:27;15.50;99.90
12470;DHT22;36499;46.484;13.832;2022-10-29T08:43:22;15.60;99.90
12470;DHT22;36499;46.484;13.832;2022-10-29T08:46:01;15.70;99.90
12470;DHT22;36499;46.484;13.832;2022-10-29T08:48:35;15.80;99.90
12470;DHT22;36499;46.484;13.832;2022-10-29T08:51:14;16.00;99.90
12470;DHT22;36499;46.484;13.832;2022-10-29T08:53:49;16.10;99.90
12470;DHT22;36499;46.484;13.832;2022-10-29T08:56:20;16.20;99.90
12470;DHT22;36499;46.484;13.832;2022-10-29T08:58:56;16.20;99.90
12470;DHT22;36499;46.484;13.832;2022-10-29T09:01:27;16.30;99.90
12470;DHT22;36499;46.484;13.832;2022-10-29T09:03:54;16.40;99.90
12470;DHT22;36499;46.484;13.832;2022-10-29T09:06:27;16.60;99.90
12470;DHT22;36499;46.484;13.832;2022-10-29T09:09:22;16.70;99.90
12470;DHT22;36499;46.484;13.832;2022-10-29T09:12:14;16.70;99.90
12470;DHT22;36499;46.484;13.832;2022-10-29T09:18:38;16.90;99.90
12470;DHT22;36499;46.484;13.832;2022-10-29T09:21:24;17.00;99.90
12470;DHT22;36499;46.484;13.832;2022-10-29T09:24:02;17.20;99.90
12470;DHT22;36499;46.484;13.832;2022-10-29T09:26:42;17.30;99.90
12470;DHT22;36499;46.484;13.832;2022-10-29T09:32:28;17.50;99.90
12470;DHT22;36499;46.484;13.832;2022-10-29T09:35:03;17.70;99.90
12470;DHT22;36499;46.484;13.832;2022-10-29T09:37:43;17.80;99.90
12470;DHT22;36499;46.484;13.832;2022-10-29T09:40:26;17.90;99.90
12470;DHT22;36499;46.484;13.832;2022-10-29T09:43:00;18.10;99.90
12470;DHT22;36499;46.484;13.832;2022-10-29T09:45:41;18.20;99.90
12470;DHT22;36499;46.484;13.832;2022-10-29T09:48:19;18.20;99.90
12470;DHT22;36499;46.484;13.832;2022-10-29T09:50:55;18.40;99.90
12470;DHT22;36499;46.484;13.832;2022-10-29T09:53:31;18.50;99.90
12470;DHT22;36499;46.484;13.832;2022-10-29T09:55:58;18.60;99.90
12470;DHT22;36499;46.484;13.832;2022-10-29T09:58:27;18.70;99.90
12470;DHT22;36499;46.484;13.832;2022-10-29T10:00:54;18.80;99.90
12470;DHT22;36499;46.484;13.832;2022-10-29T10:03:27;18.90;99.90
12470;DHT22;36499;46.484;13.832;2022-10-29T10:05:58;18.90;99.90
12470;DHT22;36499;46.484;13.832;2022-10-29T10:08:27;19.10;99.90
12470;DHT22;36499;46.484;13.832;2022-10-29T10:10:56;19.20;99.90
12470;DHT22;36499;46.484;13.832;2022-10-29T10:13:28;19.30;99.90
12470;DHT22;36499;46.484;13.832;2022-10-29T10:15:58;19.40;99.90
12470;DHT22;36499;46.484;13.832;2022-10-29T10:18:38;19.60;99.90
12470;DHT22;36499;46.484;13.832;2022-10-29T10:21:08;19.60;99.90
12470;DHT22;36499;46.484;13.832;2022-10-29T10:23:42;19.70;99.90
12470;DHT22;36499;46.484;13.832;2022-10-29T10:26:29;19.90;99.90
12470;DHT22;36499;46.484;13.832;2022-10-29T10:29:10;20.00;99.50
12470;DHT22;36499;46.484;13.832;2022-10-29T10:31:41;20.10;99.00
12470;DHT22;36499;46.484;13.832;2022-10-29T10:34:15;20.10;99.00
12470;DHT22;36499;46.484;13.832;2022-10-29T10:36:48;20.20;99.30
12470;DHT22;36499;46.484;13.832;2022-10-29T10:39:24;20.30;98.20
12470;DHT22;36499;46.484;13.832;2022-10-29T10:41:54;20.40;97.90
12470;DHT22;36499;46.484;13.832;2022-10-29T10:44:25;20.50;98.30
12470;DHT22;36499;46.484;13.832;2022-10-29T10:46:55;20.60;97.50
12470;DHT22;36499;46.484;13.832;2022-10-29T10:49:30;20.70;97.40
12470;DHT22;36499;46.484;13.832;2022-10-29T10:52:02;20.70;97.20
12470;DHT22;36499;46.484;13.832;2022-10-29T10:54:34;20.80;96.80
12470;DHT22;36499;46.484;13.832;2022-10-29T10:57:18;20.90;97.50
12470;DHT22;36499;46.484;13.832;2022-10-29T11:00:03;21.00;95.80
12470;DHT22;36499;46.484;13.832;2022-10-29T11:02:42;21.00;95.80
12470;DHT22;36499;46.484;13.832;2022-10-29T11:05:17;21.10;95.60
12470;DHT22;36499;46.484;13.832;2022-10-29T11:07:53;21.30;94.90
12470;DHT22;36499;46.484;13.832;2022-10-29T11:10:29;21.30;94.80
12470;DHT22;36499;46.484;13.832;2022-10-29T11:13:04;21.40;93.50
12470;DHT22;36499;46.484;13.832;2022-10-29T11:15:41;21.50;93.30
12470;DHT22;36499;46.484;13.832;2022-10-29T11:18:17;21.60;92.90
12470;DHT22;36499;46.484;13.832;2022-10-29T11:20:51;21.70;92.40
12470;DHT22;36499;46.484;13.832;2022-10-29T11:23:33;21.80;92.60
12470;DHT22;36499;46.484;13.832;2022-10-29T11:26:10;21.90;92.50
12470;DHT22;36499;46.484;13.832;2022-10-29T11:28:47;22.00;92.50
12470;DHT22;36499;46.484;13.832;2022-10-29T11:31:26;22.10;93.80
12470;DHT22;36499;46.484;13.832;2022-10-29T11:34:03;22.20;92.40
12470;DHT22;36499;46.484;13.832;2022-10-29T11:36:40;22.30;92.50
12470;DHT22;36499;46.484;13.832;2022-10-29T11:39:15;22.30;91.30
12470;DHT22;36499;46.484;13.832;2022-10-29T11:41:53;22.30;92.40
12470;DHT22;36499;46.484;13.832;2022-10-29T11:44:23;22.30;91.70
12470;DHT22;36499;46.484;13.832;2022-10-29T11:47:08;22.20;91.60
12470;DHT22;36499;46.484;13.832;2022-10-29T11:49:57;22.20;90.30
12470;DHT22;36499;46.484;13.832;2022-10-29T11:52:39;22.20;90.80
12470;DHT22;36499;46.484;13.832;2022-10-29T11:55:22;22.40;94.00
12470;DHT22;36499;46.484;13.832;2022-10-29T11:57:59;22.70;92.20
12470;DHT22;36499;46.484;13.832;2022-10-29T12:00:37;22.90;90.70
12470;DHT22;36499;46.484;13.832;2022-10-29T12:06:28;23.10;90.10
12470;DHT22;36499;46.484;13.832;2022-10-29T12:09:20;23.20;88.20
12470;DHT22;36499;46.484;13.832;2022-10-29T12:12:06;23.20;90.60
12470;DHT22;36499;46.484;13.832;2022-10-29T12:14:42;23.20;91.40
12470;DHT22;36499;46.484;13.832;2022-10-29T12:17:19;23.10;90.20
12470;DHT22;36499;46.484;13.832;2022-10-29T12:19:57;22.70;89.10
12470;DHT22;36499;46.484;13.832;2022-10-29T12:22:36;22.60;90.00
12470;DHT22;36499;46.484;13.832;2022-10-29T12:25:29;22.40;90.10
12470;DHT22;36499;46.484;13.832;2022-10-29T12:28:13;22.20;89.10
12470;DHT22;36499;46.484;13.832;2022-10-29T12:30:53;21.90;90.60
12470;DHT22;36499;46.484;13.832;2022-10-29T12:33:35;21.70;90.50
12470;DHT22;36499;46.484;13.832;2022-10-29T12:36:19;21.30;91.10
12470;DHT22;36499;46.484;13.832;2022-10-29T12:38:55;21.10;91.80
12470;DHT22;36499;46.484;13.832;2022-10-29T12:41:24;20.90;92.50
12470;DHT22;36499;46.484;13.832;2022-10-29T12:44:06;20.70;92.90
12470;DHT22;36499;46.484;13.832;2022-10-29T12:46:44;20.70;93.60
12470;DHT22;36499;46.484;13.832;2022-10-29T12:49:23;20.80;94.30
12470;DHT22;36499;46.484;13.832;2022-10-29T12:52:06;20.90;93.70
12470;DHT22;36499;46.484;13.832;2022-10-29T12:54:40;21.00;93.80
12470;DHT22;36499;46.484;13.832;2022-10-29T12:57:22;21.20;93.30
12470;DHT22;36499;46.484;13.832;2022-10-29T12:59:55;21.30;93.30
12470;DHT22;36499;46.484;13.832;2022-10-29T13:02:41;21.30;94.70
12470;DHT22;36499;46.484;13.832;2022-10-29T13:10:55;21.70;93.70
12470;DHT22;36499;46.484;13.832;2022-10-29T13:13:41;21.70;93.60
12470;DHT22;36499;46.484;13.832;2022-10-29T13:16:20;21.80;92.70
12470;DHT22;36499;46.484;13.832;2022-10-29T13:19:19;21.90;94.60
12470;DHT22;36499;46.484;13.832;2022-10-29T13:21:59;22.10;96.60
12470;DHT22;36499;46.484;13.832;2022-10-29T13:27:55;22.10;96.40
12470;DHT22;36499;46.484;13.832;2022-10-29T13:30:23;22.00;97.50
12470;DHT22;36499;46.484;13.832;2022-10-29T13:32:52;21.90;97.80
12470;DHT22;36499;46.484;13.832;2022-10-29T13:35:39;21.50;97.60
12470;DHT22;36499;46.484;13.832;2022-10-29T13:38:14;21.20;98.80
12470;DHT22;36499;46.484;13.832;2022-10-29T13:41:11;20.90;99.10
12470;DHT22;36499;46.484;13.832;2022-10-29T13:43:42;20.50;99.40
12470;DHT22;36499;46.484;13.832;2022-10-29T13:46:33;20.30;99.90
12470;DHT22;36499;46.484;13.832;2022-10-29T13:49:11;19.90;99.90
12470;DHT22;36499;46.484;13.832;2022-10-29T13:51:58;19.60;99.90
12470;DHT22;36499;46.484;13.832;2022-10-29T13:54:34;19.40;99.90
12470;DHT22;36499;46.484;13.832;2022-10-29T13:57:15;19.10;99.90
12470;DHT22;36499;46.484;13.832;2022-10-29T13:59:48;18.90;99.90
12470;DHT22;36499;46.484;13.832;2022-10-29T14:02:28;18.70;99.90
12470;DHT22;36499;46.484;13.832;2022-10-29T14:05:06;18.50;99.90
12470;DHT22;36499;46.484;13.832;2022-10-29T14:07:50;18.30;99.90
12470;DHT22;36499;46.484;13.832;2022-10-29T14:10:23;18.10;99.90
12470;DHT22;36499;46.484;13.832;2022-10-29T14:12:57;17.90;99.90
12470;DHT22;36499;46.484;13.832;2022-10-29T14:15:32;17.80;99.90
12470;DHT22;36499;46.484;13.832;2022-10-29T14:18:17;17.60;99.90
12470;DHT22;36499;46.484;13.832;2022-10-29T14:20:54;17.40;99.90
12470;DHT22;36499;46.484;13.832;2022-10-29T14:23:21;17.20;99.90
12470;DHT22;36499;46.484;13.832;2022-10-29T14:25:50;17.10;99.90
12470;DHT22;36499;46.484;13.832;2022-10-29T14:28:24;17.00;99.90
12470;DHT22;36499;46.484;13.832;2022-10-29T14:31:00;16.90;99.90
12470;DHT22;36499;46.484;13.832;2022-10-29T14:33:31;16.80;99.90
12470;DHT22;36499;46.484;13.832;2022-10-29T14:36:08;16.80;99.90
12470;DHT22;36499;46.484;13.832;2022-10-29T14:38:43;16.70;99.90
12470;DHT22;36499;46.484;13.832;2022-10-29T14:41:14;16.70;99.90
12470;DHT22;36499;46.484;13.832;2022-10-29T14:43:48;16.60;99.90
12470;DHT22;36499;46.484;13.832;2022-10-29T14:46:22;16.50;99.90
12470;DHT22;36499;46.484;13.832;2022-10-29T14:48:59;16.50;99.90
12470;DHT22;36499;46.484;13.832;2022-10-29T14:51:40;16.50;99.90
12470;DHT22;36499;46.484;13.832;2022-10-29T14:54:19;16.50;99.90
12470;DHT22;36499;46.484;13.832;2022-10-29T14:56:51;16.50;99.90
12470;DHT22;36499;46.484;13.832;2022-10-29T14:59:25;16.50;99.90
12470;DHT22;36499;46.484;13.832;2022-10-29T15:01:57;16.40;99.90
12470;DHT22;36499;46.484;13.832;2022-10-29T15:04:28;16.40;99.90
12470;DHT22;36499;46.484;13.832;2022-10-29T15:07:27;16.50;99.90
12470;DHT22;36499;46.484;13.832;2022-10-29T15:10:16;16.50;99.90
12470;DHT22;36499;46.484;13.832;2022-10-29T15:12:46;16.50;99.90
12470;DHT22;36499;46.484;13.832;2022-10-29T15:15:27;16.40;99.90
12470;DHT22;36499;46.484;13.832;2022-10-29T15:17:59;16.40;99.90
12470;DHT22;36499;46.484;13.832;2022-10-29T15:20:34;16.40;99.90
12470;DHT22;36499;46.484;13.832;2022-10-29T15:23:16;16.30;99.90
12470;DHT22;36499;46.484;13.832;2022-10-29T15:25:47;16.20;99.90
12470;DHT22;36499;46.484;13.832;2022-10-29T15:28:21;16.10;99.90
12470;DHT22;36499;46.484;13.832;2022-10-29T15:30:52;16.10;99.90
12470;DHT22;36499;46.484;13.832;2022-10-29T15:33:21;16.10;99.90
12470;DHT22;36499;46.484;13.832;2022-10-29T15:35:54;16.00;99.90
12470;DHT22;36499;46.484;13.832;2022-10-29T15:41:51;15.80;99.90
12470;DHT22;36499;46.484;13.832;2022-10-29T15:44:45;15.70;99.90
12470;DHT22;36499;46.484;13.832;2022-10-29T15:47:34;15.50;99.90
12470;DHT22;36499;46.484;13.832;2022-10-29T15:50:02;15.40;99.90
12470;DHT22;36499;46.484;13.832;2022-10-29T15:52:32;15.30;99.90
12470;DHT22;36499;46.484;13.832;2022-10-29T15:55:08;15.20;99.90
12470;DHT22;36499;46.484;13.832;2022-10-29T15:57:39;15.20;99.90
12470;DHT22;36499;46.484;13.832;2022-10-29T16:00:09;15.10;99.90
12470;DHT22;36499;46.484;13.832;2022-10-29T16:02:39;15.10;99.90
12470;DHT22;36499;46.484;13.832;2022-10-29T16:05:10;15.10;99.90
12470;DHT22;36499;46.484;13.832;2022-10-29T16:07:38;14.90;99.90
12470;DHT22;36499;46.484;13.832;2022-10-29T16:10:13;14.80;99.90
12470;DHT22;36499;46.484;13.832;2022-10-29T16:12:42;14.60;99.90
12470;DHT22;36499;46.484;13.832;2022-10-29T16:15:15;14.60;99.90
12470;DHT22;36499;46.484;13.832;2022-10-29T16:17:45;14.50;99.90
12470;DHT22;36499;46.484;13.832;2022-10-29T16:20:14;14.50;99.90
12470;DHT22;36499;46.484;13.832;2022-10-29T16:22:44;14.40;99.90
12470;DHT22;36499;46.484;13.832;2022-10-29T16:25:20;14.30;99.90